createdAt,value
2022-08-23T00:02:26.693Z,5.07
2022-08-23T00:05:15.411Z,4.53
2022-08-23T00:08:04.572Z,4.90
2022-08-23T00:10:53.169Z,4.70
2022-08-23T00:13:47.486Z,4.80
2022-08-23T00:16:36.900Z,4.20
2022-08-23T00:19:25.880Z,4.90
2022-08-23T00:22:15.128Z,4.30
2022-08-23T00:25:07.776Z,4.43
2022-08-23T00:27:56.562Z,4.50
2022-08-23T00:30:47.931Z,5.03
2022-08-23T00:33:36.472Z,4.67
2022-08-23T00:36:25.097Z,4.47
2022-08-23T00:39:13.619Z,4.90
2022-08-23T00:42:28.204Z,4.40
2022-08-23T00:45:38.854Z,4.80
2022-08-23T00:48:28.851Z,4.83
2022-08-23T00:51:21.691Z,4.60
2022-08-23T00:54:11.237Z,3.93
2022-08-23T00:57:01.701Z,4.57
2022-08-23T00:59:50.411Z,4.83
2022-08-23T01:02:41.448Z,4.40
2022-08-23T01:05:35.941Z,4.53
2022-08-23T01:08:27.439Z,4.27
2022-08-23T01:11:20.092Z,5.77
2022-08-23T01:14:13.248Z,4.90
2022-08-23T01:17:05.585Z,5.47
2022-08-23T01:19:57.285Z,5.03
2022-08-23T01:22:50.698Z,5.60
2022-08-23T01:25:40.902Z,4.90
2022-08-23T01:28:29.651Z,4.93
2022-08-23T01:31:19.119Z,4.90
2022-08-23T01:34:09.712Z,5.30
2022-08-23T01:37:00.203Z,4.70
2022-08-23T01:39:48.745Z,5.40
2022-08-23T01:42:41.553Z,4.93
2022-08-23T01:45:30.634Z,5.13
2022-08-23T01:48:19.819Z,5.60
2022-08-23T01:51:08.529Z,5.90
2022-08-23T01:53:57.022Z,5.43
2022-08-23T01:56:46.918Z,5.63
2022-08-23T01:59:36.817Z,5.10
2022-08-23T02:02:25.757Z,5.67
2022-08-23T02:05:14.450Z,5.57
2022-08-23T02:08:26.232Z,5.80
2022-08-23T02:11:17.128Z,4.47
2022-08-23T02:14:08.487Z,5.23
2022-08-23T02:17:03.802Z,5.40
2022-08-23T02:19:53.532Z,5.50
2022-08-23T02:22:42.080Z,5.87
2022-08-23T02:25:30.952Z,5.10
2022-08-23T02:28:19.508Z,5.50
2022-08-23T02:31:08.089Z,5.30
2022-08-23T02:34:01.640Z,5.20
2022-08-23T02:36:50.305Z,5.60
2022-08-23T02:39:39.353Z,5.60
2022-08-23T02:42:28.410Z,5.87
2022-08-23T02:45:17.362Z,5.70
2022-08-23T02:48:06.561Z,5.97
2022-08-23T02:50:59.939Z,5.40
2022-08-23T02:53:48.555Z,6.00
2022-08-23T02:56:37.217Z,5.77
2022-08-23T02:59:25.791Z,5.90
2022-08-23T03:02:14.306Z,6.20
2022-08-23T03:05:02.850Z,5.80
2022-08-23T03:07:52.846Z,5.80
2022-08-23T03:10:43.676Z,5.40
2022-08-23T03:13:32.160Z,5.60
2022-08-23T03:16:21.309Z,5.80
2022-08-23T03:19:10.144Z,5.70
2022-08-23T03:21:58.667Z,5.73
2022-08-23T03:24:48.557Z,6.07
2022-08-23T03:27:38.267Z,6.80
2022-08-23T03:30:33.725Z,6.50
2022-08-23T03:33:22.284Z,6.03
2022-08-23T03:36:12.119Z,5.50
2022-08-23T03:39:00.907Z,5.60
2022-08-23T03:41:50.777Z,6.30
2022-08-23T03:44:39.482Z,6.23
2022-08-23T03:47:28.839Z,6.90
2022-08-23T03:50:17.396Z,6.53
2022-08-23T03:53:05.949Z,6.37
2022-08-23T03:55:56.301Z,6.40
2022-08-23T03:58:46.216Z,5.70
2022-08-23T04:01:34.805Z,6.10
2022-08-23T04:04:23.841Z,5.80
2022-08-23T04:07:12.531Z,6.73
2022-08-23T04:10:01.033Z,6.20
2022-08-23T04:12:49.861Z,6.53
2022-08-23T04:15:39.799Z,8.00
2022-08-23T04:18:32.575Z,7.23
2022-08-23T04:21:23.658Z,6.73
2022-08-23T04:24:12.197Z,7.40
2022-08-23T04:27:00.682Z,7.20
2022-08-23T04:29:50.352Z,6.17
2022-08-23T04:32:40.932Z,6.97
2022-08-23T04:35:32.221Z,6.60
2022-08-23T04:38:24.428Z,6.60
2022-08-23T04:41:31.350Z,7.90
2022-08-23T04:44:19.929Z,7.03
2022-08-23T04:47:08.471Z,7.37
2022-08-23T04:49:58.327Z,8.37
2022-08-23T04:52:46.880Z,7.87
2022-08-23T04:55:36.515Z,6.33
2022-08-23T04:58:25.228Z,6.90
2022-08-23T05:01:16.067Z,6.80
2022-08-23T05:04:05.499Z,6.47
2022-08-23T05:06:55.369Z,6.30
2022-08-23T05:09:43.894Z,7.17
2022-08-23T05:12:32.431Z,7.40
2022-08-23T05:15:21.148Z,6.90
2022-08-23T05:18:09.967Z,6.27
2022-08-23T05:20:58.496Z,5.80
2022-08-23T05:23:50.839Z,6.03
2022-08-23T05:26:43.197Z,6.53
2022-08-23T05:29:31.923Z,5.93
2022-08-23T05:32:20.442Z,6.10
2022-08-23T05:35:09.757Z,6.93
2022-08-23T05:37:59.708Z,6.30
2022-08-23T05:40:52.653Z,6.00
2022-08-23T05:43:44.255Z,6.43
2022-08-23T05:46:33.265Z,5.20
2022-08-23T05:49:21.810Z,6.30
2022-08-23T05:52:13.656Z,6.07
2022-08-23T05:55:02.695Z,5.77
2022-08-23T05:57:52.590Z,6.10
2022-08-23T06:00:41.302Z,6.60
2022-08-23T06:03:30.075Z,6.27
2022-08-23T06:06:20.265Z,5.90
2022-08-23T06:09:10.894Z,6.57
2022-08-23T06:12:00.004Z,6.53
2022-08-23T06:14:49.910Z,6.47
2022-08-23T06:17:39.368Z,6.20
2022-08-23T06:20:27.971Z,6.40
2022-08-23T06:23:16.540Z,6.20
2022-08-23T06:26:11.251Z,6.73
2022-08-23T06:29:02.435Z,5.60
2022-08-23T06:31:53.907Z,5.53
2022-08-23T06:34:42.463Z,5.90
2022-08-23T06:37:30.989Z,5.57
2022-08-23T06:40:19.701Z,5.77
2022-08-23T06:43:08.436Z,6.37
2022-08-23T06:45:58.379Z,5.50
2022-08-23T06:48:48.981Z,5.93
2022-08-23T06:51:39.258Z,5.30
2022-08-23T06:54:31.380Z,5.17
2022-08-23T06:57:20.498Z,5.23
2022-08-23T07:00:11.255Z,5.67
2022-08-23T07:03:00.264Z,5.50
2022-08-23T07:05:50.555Z,5.10
2022-08-23T07:08:39.161Z,4.30
2022-08-23T07:11:32.377Z,4.93
2022-08-23T07:14:24.655Z,4.67
2022-08-23T07:17:14.399Z,5.00
2022-08-23T07:20:02.956Z,4.70
2022-08-23T07:22:52.871Z,5.00
2022-08-23T07:25:41.484Z,4.60
2022-08-23T07:28:30.744Z,4.13
2022-08-23T07:31:21.225Z,4.27
2022-08-23T07:34:10.280Z,3.73
2022-08-23T07:36:58.827Z,4.40
2022-08-23T07:39:48.737Z,4.57
2022-08-23T07:42:37.320Z,3.90
2022-08-23T07:45:27.040Z,3.60
2022-08-23T07:48:23.539Z,4.50
2022-08-23T07:51:20.550Z,3.80
2022-08-23T07:54:11.394Z,3.53
2022-08-23T07:57:01.477Z,4.00
2022-08-23T07:59:49.983Z,3.33
2022-08-23T08:02:38.627Z,3.07
2022-08-23T08:05:27.111Z,3.40
2022-08-23T08:08:15.743Z,3.77
2022-08-23T08:11:04.363Z,4.07
2022-08-23T08:13:56.279Z,3.40
2022-08-23T08:16:46.584Z,3.20
2022-08-23T08:19:35.232Z,4.23
2022-08-23T08:22:23.794Z,3.37
2022-08-23T08:25:12.449Z,3.60
2022-08-23T08:28:01.598Z,3.77
2022-08-23T08:30:51.633Z,3.40
2022-08-23T08:33:40.661Z,3.53
2022-08-23T08:36:36.023Z,3.90
2022-08-23T08:39:27.361Z,3.53
2022-08-23T08:42:28.685Z,3.30
2022-08-23T08:45:21.531Z,2.87
2022-08-23T08:48:15.524Z,3.63
2022-08-23T08:51:12.587Z,3.97
2022-08-23T08:54:03.533Z,3.53
2022-08-23T08:56:54.015Z,2.80
2022-08-23T08:59:47.505Z,3.23
2022-08-23T09:02:37.001Z,3.53
2022-08-23T09:05:31.540Z,3.10
2022-08-23T09:08:31.779Z,3.50
2022-08-23T09:11:32.720Z,3.00
2022-08-23T09:14:38.934Z,3.30
2022-08-23T09:17:33.884Z,3.20
2022-08-23T09:20:24.324Z,3.20
2022-08-23T09:23:19.841Z,3.10
2022-08-23T09:26:18.660Z,3.50
2022-08-23T09:29:18.465Z,3.70
2022-08-23T09:32:08.904Z,3.20
2022-08-23T09:35:12.556Z,3.30
2022-08-23T09:38:04.869Z,3.43
2022-08-23T09:40:54.737Z,4.00
2022-08-23T09:43:47.161Z,3.33
2022-08-23T09:46:39.137Z,3.50
2022-08-23T09:49:30.804Z,3.80
2022-08-23T09:52:24.064Z,3.20
2022-08-23T09:55:32.686Z,3.33
2022-08-23T09:58:28.360Z,3.50
2022-08-23T10:01:20.655Z,3.50
2022-08-23T10:04:12.807Z,3.73
2022-08-23T10:07:02.518Z,3.57
2022-08-23T10:09:51.498Z,3.37
2022-08-23T10:12:40.075Z,3.40
2022-08-23T10:15:41.364Z,3.17
2022-08-23T10:18:40.290Z,3.83
2022-08-23T10:21:34.162Z,3.23
2022-08-23T10:24:31.124Z,3.17
2022-08-23T10:27:47.820Z,3.00
2022-08-23T10:30:48.008Z,3.57
2022-08-23T10:33:42.648Z,3.27
2022-08-23T10:36:35.452Z,3.50
2022-08-23T10:39:26.325Z,3.50
2022-08-23T10:42:21.024Z,3.70
2022-08-23T10:45:17.880Z,3.50
2022-08-23T10:48:27.192Z,3.23
2022-08-23T10:51:23.181Z,3.90
2022-08-23T10:54:34.745Z,3.23
2022-08-23T10:57:24.628Z,3.20
2022-08-23T11:00:18.129Z,3.10
2022-08-23T11:03:25.481Z,3.17
2022-08-23T11:06:41.779Z,3.10
2022-08-23T11:10:04.975Z,2.60
2022-08-23T11:12:55.987Z,3.13
2022-08-23T11:15:46.548Z,3.13
2022-08-23T11:18:43.365Z,8.20
2022-08-23T11:21:48.264Z,3.37
2022-08-23T11:25:01.417Z,3.50
2022-08-23T11:27:50.317Z,2.97
2022-08-23T11:30:47.215Z,2.60
2022-08-23T11:33:37.757Z,3.13
2022-08-23T11:36:29.184Z,2.93
2022-08-23T11:39:25.335Z,3.13
2022-08-23T11:42:19.420Z,2.80
2022-08-23T11:45:22.464Z,2.70
2022-08-23T11:48:19.100Z,2.90
2022-08-23T11:51:28.328Z,2.70
2022-08-23T11:54:36.108Z,2.67
2022-08-23T11:57:33.821Z,2.67
2022-08-23T12:00:28.564Z,2.80
2022-08-23T12:03:24.621Z,3.20
2022-08-23T12:06:50.542Z,2.60
2022-08-23T12:09:54.742Z,2.87
2022-08-23T12:12:47.127Z,2.80
2022-08-23T12:16:06.344Z,2.80
2022-08-23T12:18:57.265Z,2.60
2022-08-23T12:21:50.265Z,3.10
2022-08-23T12:24:43.823Z,2.40
2022-08-23T12:27:34.708Z,2.90
2022-08-23T12:30:26.167Z,2.70
2022-08-23T12:33:24.449Z,3.07
2022-08-23T12:36:17.774Z,2.63
2022-08-23T12:39:11.756Z,2.40
2022-08-23T12:42:05.782Z,2.67
2022-08-23T12:45:07.868Z,2.53
2022-08-23T12:47:58.918Z,2.80
2022-08-23T12:50:54.549Z,3.47
2022-08-23T12:53:45.745Z,2.50
2022-08-23T12:56:36.704Z,2.60
2022-08-23T12:59:35.751Z,2.33
2022-08-23T13:02:27.305Z,3.13
2022-08-23T13:05:23.844Z,2.57
2022-08-23T13:08:15.822Z,2.60
2022-08-23T13:11:08.184Z,2.50
2022-08-23T13:13:58.479Z,2.30
2022-08-23T13:16:47.031Z,2.57
2022-08-23T13:19:36.524Z,2.70
2022-08-23T13:22:26.665Z,2.60
2022-08-23T13:25:29.681Z,2.53
2022-08-23T13:28:25.093Z,2.23
2022-08-23T13:31:15.161Z,2.77
2022-08-23T13:34:03.860Z,2.30
2022-08-23T13:36:54.756Z,2.43
2022-08-23T13:39:47.414Z,2.50
2022-08-23T13:42:38.815Z,2.90
2022-08-23T13:45:29.435Z,2.07
2022-08-23T13:48:22.147Z,2.47
2022-08-23T13:51:36.937Z,2.77
2022-08-23T13:54:25.921Z,3.33
2022-08-23T13:57:16.585Z,2.70
2022-08-23T14:00:08.575Z,2.90
2022-08-23T14:02:57.182Z,2.80
2022-08-23T14:05:47.118Z,2.53
2022-08-23T14:08:35.704Z,2.30
2022-08-23T14:11:24.247Z,2.30
2022-08-23T14:14:13.367Z,3.60
2022-08-23T14:17:03.001Z,2.60
2022-08-23T14:20:31.983Z,2.90
2022-08-23T14:23:11.444Z,2.87
2022-08-23T14:26:00.754Z,2.40
2022-08-23T14:28:49.347Z,2.60
2022-08-23T14:31:42.790Z,2.73
2022-08-23T14:34:31.732Z,2.40
2022-08-23T14:38:02.016Z,2.43
2022-08-23T14:40:31.721Z,2.23
2022-08-23T14:43:21.656Z,2.23
2022-08-23T14:46:10.259Z,2.50
2022-08-23T14:48:58.942Z,2.20
2022-08-23T14:51:50.337Z,2.37
2022-08-23T14:54:38.928Z,2.87
2022-08-23T14:57:28.916Z,2.97
2022-08-23T15:00:18.432Z,2.33
2022-08-23T15:03:10.226Z,3.57
2022-08-23T15:05:59.057Z,3.13
2022-08-23T15:08:48.241Z,2.27
2022-08-23T15:14:46.737Z,2.53
2022-08-23T15:17:38.086Z,2.30
2022-08-23T15:20:28.815Z,2.47
2022-08-23T15:23:17.356Z,2.17
2022-08-23T15:26:06.035Z,3.90
2022-08-23T15:28:54.641Z,3.47
2022-08-23T15:31:44.593Z,2.40
2022-08-23T15:34:35.436Z,2.27
2022-08-23T15:37:24.141Z,2.80
2022-08-23T15:40:12.955Z,2.50
2022-08-23T15:43:03.187Z,2.67
2022-08-23T15:45:52.186Z,2.50
2022-08-23T15:48:45.883Z,2.70
2022-08-23T15:51:34.403Z,3.00
2022-08-23T15:54:23.056Z,2.63
2022-08-23T15:57:15.334Z,2.90
2022-08-23T16:00:06.035Z,2.40
2022-08-23T16:03:18.870Z,4.60
2022-08-23T16:06:05.385Z,2.93
2022-08-23T16:08:54.428Z,2.83
2022-08-23T16:11:43.014Z,2.43
2022-08-23T16:14:32.542Z,2.20
2022-08-23T16:17:21.729Z,2.47
2022-08-23T16:20:12.533Z,2.50
2022-08-23T16:23:02.637Z,2.33
2022-08-23T16:25:51.259Z,2.97
2022-08-23T16:28:39.832Z,3.73
2022-08-23T16:31:38.338Z,2.40
2022-08-23T16:34:27.713Z,2.57
2022-08-23T16:37:16.251Z,2.57
2022-08-23T16:40:08.590Z,2.63
2022-08-23T16:42:57.421Z,2.93
2022-08-23T16:45:46.076Z,2.77
2022-08-23T16:48:34.857Z,3.37
2022-08-23T16:51:23.401Z,4.30
2022-08-23T16:54:12.724Z,6.90
2022-08-23T16:57:02.986Z,4.33
2022-08-23T16:59:51.630Z,3.00
2022-08-23T17:02:40.851Z,2.73
2022-08-23T17:05:29.693Z,2.70
2022-08-23T17:08:18.502Z,2.30
2022-08-23T17:11:07.887Z,2.43
2022-08-23T17:13:57.849Z,2.37
2022-08-23T17:16:54.905Z,2.67
2022-08-23T17:19:44.510Z,2.90
2022-08-23T17:22:33.142Z,2.87
2022-08-23T17:25:22.487Z,2.67
2022-08-23T17:28:11.528Z,2.30
2022-08-23T17:31:01.453Z,3.30
2022-08-23T17:33:50.026Z,2.73
2022-08-23T17:36:40.305Z,2.10
2022-08-23T17:39:30.188Z,2.20
2022-08-23T17:42:19.543Z,2.70
2022-08-23T17:45:09.892Z,2.33
2022-08-23T17:47:59.794Z,2.50
2022-08-23T17:50:48.652Z,2.47
2022-08-23T17:53:37.254Z,2.37
2022-08-23T17:56:26.948Z,2.77
2022-08-23T17:59:15.614Z,2.47
2022-08-23T18:02:04.943Z,2.20
2022-08-23T18:04:54.884Z,2.50
2022-08-23T18:07:43.462Z,2.80
2022-08-23T18:10:32.224Z,2.37
2022-08-23T18:13:20.774Z,2.50
2022-08-23T18:16:09.399Z,2.10
2022-08-23T18:18:59.097Z,2.83
2022-08-23T18:21:49.248Z,2.20
2022-08-23T18:24:37.884Z,9.73
2022-08-23T18:27:43.891Z,5.30
2022-08-23T18:30:35.972Z,6.00
2022-08-23T18:33:31.432Z,7.03
2022-08-23T18:36:20.990Z,6.93
2022-08-23T18:39:10.904Z,4.70
2022-08-23T18:42:00.525Z,3.23
2022-08-23T18:44:49.178Z,3.30
2022-08-23T18:47:37.929Z,2.90
2022-08-23T18:50:27.732Z,3.17
2022-08-23T18:53:17.061Z,3.10
2022-08-23T18:56:08.088Z,2.80
2022-08-23T18:58:56.693Z,3.00
2022-08-23T19:01:45.437Z,2.67
2022-08-23T19:04:34.081Z,2.77
2022-08-23T19:07:22.671Z,3.77
2022-08-23T19:10:18.394Z,3.23
2022-08-23T19:13:10.536Z,3.80
2022-08-23T19:15:59.169Z,3.07
2022-08-23T19:18:48.082Z,3.70
2022-08-23T19:21:36.977Z,2.93
2022-08-23T19:24:25.973Z,3.07
2022-08-23T19:27:14.995Z,3.10
2022-08-23T19:30:05.535Z,3.33
2022-08-23T19:32:55.271Z,3.13
2022-08-23T19:35:43.892Z,3.40
2022-08-23T19:38:32.799Z,2.73
2022-08-23T19:41:21.538Z,3.60
2022-08-23T19:44:10.639Z,3.70
2022-08-23T19:47:00.922Z,3.90
2022-08-23T19:49:49.510Z,3.50
2022-08-23T19:52:38.639Z,3.30
2022-08-23T19:55:27.433Z,2.93
2022-08-23T19:58:16.095Z,3.00
2022-08-23T20:01:04.725Z,3.20
2022-08-23T20:03:54.988Z,3.00
2022-08-23T20:06:43.624Z,4.17
2022-08-23T20:09:33.440Z,3.60
2022-08-23T20:12:22.012Z,4.00
2022-08-23T20:15:11.863Z,3.40
2022-08-23T20:18:00.746Z,3.27
2022-08-23T20:20:53.499Z,3.47
2022-08-23T20:23:59.661Z,3.43
2022-08-23T20:26:50.961Z,3.90
2022-08-23T20:29:39.475Z,3.40
2022-08-23T20:32:28.385Z,4.13
2022-08-23T20:35:16.925Z,3.30
2022-08-23T20:38:06.981Z,3.50
2022-08-23T20:40:55.537Z,3.50
2022-08-23T20:43:48.640Z,3.70
2022-08-23T20:46:37.729Z,4.10
2022-08-23T20:49:26.400Z,3.67
2022-08-23T20:52:16.607Z,3.30
2022-08-23T20:55:10.659Z,3.80
2022-08-23T20:58:00.740Z,3.93
2022-08-23T21:00:49.362Z,3.30
2022-08-23T21:03:37.948Z,4.20
2022-08-23T21:06:28.500Z,4.07
2022-08-23T21:09:19.306Z,4.10
2022-08-23T21:12:09.438Z,4.70
2022-08-23T21:14:58.048Z,3.90
2022-08-23T21:17:47.686Z,3.87
2022-08-23T21:20:36.743Z,3.60
2022-08-23T21:23:25.532Z,3.83
2022-08-23T21:26:14.509Z,4.10
2022-08-23T21:29:05.496Z,4.20
2022-08-23T21:31:54.010Z,3.63
2022-08-23T21:34:42.527Z,3.63
2022-08-23T21:37:31.188Z,3.50
2022-08-23T21:40:20.053Z,4.13
2022-08-23T21:43:09.446Z,3.80
2022-08-23T21:45:59.501Z,3.47
2022-08-23T21:48:48.118Z,4.17
2022-08-23T21:51:38.457Z,4.10
2022-08-23T21:54:27.137Z,3.60
2022-08-23T21:57:16.411Z,3.50
2022-08-23T22:00:06.702Z,4.03
2022-08-23T22:02:56.775Z,3.80
2022-08-23T22:05:46.774Z,4.13
2022-08-23T22:08:35.339Z,3.47
2022-08-23T22:11:24.366Z,4.07
2022-08-23T22:14:15.353Z,4.03
2022-08-23T22:17:04.252Z,4.37
2022-08-23T22:19:54.097Z,4.27
2022-08-23T22:22:43.481Z,4.33
2022-08-23T22:25:33.291Z,4.67
2022-08-23T22:28:21.779Z,4.37
2022-08-23T22:31:10.481Z,4.60
2022-08-23T22:33:59.031Z,5.77
2022-08-23T22:36:52.184Z,4.87
2022-08-23T22:39:41.697Z,4.70
2022-08-23T22:42:30.356Z,5.23
2022-08-23T22:45:19.741Z,5.80
2022-08-23T22:48:08.421Z,5.50
2022-08-23T22:51:05.932Z,5.00
2022-08-23T22:53:58.856Z,5.97
2022-08-23T22:56:50.605Z,5.70
2022-08-23T22:59:41.466Z,5.57
2022-08-23T23:02:33.111Z,5.00
2022-08-23T23:05:23.603Z,5.83
2022-08-23T23:08:26.729Z,6.87
2022-08-23T23:11:17.673Z,5.93
2022-08-23T23:14:06.878Z,5.60
2022-08-23T23:16:55.533Z,7.07
2022-08-23T23:20:01.693Z,5.27
2022-08-23T23:22:56.181Z,10.03
2022-08-23T23:25:47.739Z,5.53
2022-08-23T23:28:38.613Z,5.37
2022-08-23T23:31:28.857Z,5.60
2022-08-23T23:34:17.784Z,5.47
2022-08-23T23:37:06.511Z,6.37
2022-08-23T23:39:55.043Z,6.50
2022-08-23T23:42:44.024Z,5.90
2022-08-23T23:45:34.050Z,6.30
2022-08-23T23:48:22.611Z,5.77
2022-08-23T23:51:13.469Z,7.03
2022-08-23T23:54:02.417Z,6.00
2022-08-23T23:56:51.039Z,6.33
2022-08-23T23:59:39.919Z,6.47
